createdAt,value
2019-03-05T00:02:42.281Z,8.80
2019-03-05T00:05:17.389Z,8.70
2019-03-05T00:15:24.966Z,8.50
2019-03-05T00:18:02.736Z,8.30
2019-03-05T00:20:35.789Z,8.60
2019-03-05T00:23:13.221Z,8.50
2019-03-05T00:25:48.976Z,8.20
2019-03-05T00:29:01.956Z,8.50
2019-03-05T00:31:39.869Z,9.00
2019-03-05T00:35:08.903Z,9.30
2019-03-05T00:37:45.800Z,9.30
2019-03-05T00:40:26.392Z,10.10
2019-03-05T00:43:07.326Z,8.80
2019-03-05T00:49:14.209Z,8.70
2019-03-05T00:52:27.468Z,8.90
2019-03-05T00:55:15.598Z,9.00
2019-03-05T00:57:59.473Z,8.90
2019-03-05T01:01:06.838Z,8.10
2019-03-05T01:03:56.735Z,7.30
2019-03-05T01:06:29.707Z,6.30
2019-03-05T01:09:38.521Z,5.90
2019-03-05T01:12:17.154Z,6.20
2019-03-05T01:14:47.636Z,6.30
2019-03-05T01:17:22.561Z,6.40
2019-03-05T01:19:57.874Z,6.50
2019-03-05T01:22:27.734Z,6.90
2019-03-05T01:25:05.324Z,7.20
2019-03-05T01:27:40.215Z,7.40
2019-03-05T01:30:09.190Z,7.60
2019-03-05T01:32:44.072Z,7.50
2019-03-05T01:35:19.723Z,7.60
2019-03-05T01:38:32.271Z,7.80
2019-03-05T01:41:08.573Z,7.70
2019-03-05T01:43:42.291Z,7.50
2019-03-05T01:46:16.295Z,7.60
2019-03-05T01:48:54.990Z,7.70
2019-03-05T01:51:50.643Z,7.70
2019-03-05T01:54:31.097Z,7.50
2019-03-05T01:57:06.428Z,7.20
2019-03-05T01:59:42.057Z,7.30
2019-03-05T02:02:13.210Z,7.40
2019-03-05T02:05:25.101Z,7.50
2019-03-05T02:08:07.336Z,7.20
2019-03-05T02:10:38.795Z,7.00
2019-03-05T02:13:48.674Z,7.20
2019-03-05T02:16:21.891Z,7.30
2019-03-05T02:19:30.565Z,7.40
2019-03-05T02:22:06.655Z,7.40
2019-03-05T02:27:53.315Z,7.50
2019-03-05T02:34:20.368Z,7.70
2019-03-05T02:40:31.485Z,8.00
2019-03-05T02:46:34.937Z,7.80
2019-03-05T02:50:10.872Z,7.70
2019-03-05T02:52:50.066Z,7.70
2019-03-05T02:58:52.679Z,7.90
2019-03-05T03:08:04.720Z,7.80
2019-03-05T03:10:36.697Z,7.40
2019-03-05T03:15:55.863Z,7.80
2019-03-05T03:18:29.241Z,7.90
2019-03-05T03:21:00.915Z,8.00
2019-03-05T03:23:35.815Z,8.00
2019-03-05T03:26:04.806Z,8.10
2019-03-05T03:28:46.099Z,8.20
2019-03-05T03:31:18.822Z,8.20
2019-03-05T03:34:29.776Z,8.10
2019-03-05T03:37:05.439Z,8.10
2019-03-05T03:39:42.124Z,8.10
2019-03-05T03:42:14.803Z,8.00
2019-03-05T03:45:04.865Z,8.00
2019-03-05T03:47:22.105Z,8.10
2019-03-05T03:49:53.154Z,8.00
2019-03-05T03:53:12.171Z,8.00
2019-03-05T03:55:46.649Z,7.90
2019-03-05T03:58:16.559Z,7.80
2019-03-05T04:00:46.715Z,7.90
2019-03-05T04:03:18.765Z,7.70
2019-03-05T04:05:52.672Z,7.30
2019-03-05T04:08:34.378Z,7.50
2019-03-05T04:11:05.271Z,7.70
2019-03-05T04:14:07.473Z,7.80
2019-03-05T04:16:38.272Z,7.90
2019-03-05T04:19:21.342Z,7.90
2019-03-05T04:21:45.007Z,8.00
2019-03-05T04:24:19.636Z,8.10
2019-03-05T04:26:49.385Z,8.10
2019-03-05T04:29:27.215Z,8.10
2019-03-05T04:32:02.354Z,8.20
2019-03-05T04:42:10.511Z,8.20
2019-03-05T04:44:43.706Z,8.20
2019-03-05T04:50:11.753Z,8.20
2019-03-05T04:52:40.531Z,8.30
2019-03-05T04:55:11.624Z,8.30
2019-03-05T04:58:06.156Z,8.30
2019-03-05T05:00:39.029Z,8.30
2019-03-05T05:03:07.813Z,8.30
2019-03-05T05:05:39.572Z,8.20
2019-03-05T05:08:09.275Z,8.30
2019-03-05T05:10:39.373Z,8.40
2019-03-05T05:13:09.746Z,8.20
2019-03-05T05:16:29.559Z,8.20
2019-03-05T05:19:02.238Z,8.10
2019-03-05T05:21:32.211Z,8.10
2019-03-05T05:24:54.160Z,8.30
2019-03-05T05:27:30.388Z,8.40
2019-03-05T05:29:59.438Z,8.50
2019-03-05T05:32:35.557Z,8.60
2019-03-05T05:35:08.308Z,8.60
2019-03-05T05:38:18.520Z,8.50
2019-03-05T05:40:54.538Z,8.50
2019-03-05T05:43:28.531Z,8.60
2019-03-05T05:46:21.683Z,8.50
2019-03-05T05:48:50.455Z,8.30
2019-03-05T05:51:23.142Z,8.30
2019-03-05T05:54:24.036Z,6.20
2019-03-05T05:56:54.307Z,8.40
2019-03-05T05:59:24.827Z,8.40
2019-03-05T06:01:59.419Z,8.50
2019-03-05T06:04:28.239Z,8.50
2019-03-05T06:07:34.478Z,8.50
2019-03-05T06:10:03.600Z,8.60
2019-03-05T06:12:33.751Z,8.70
2019-03-05T06:15:14.177Z,8.70
2019-03-05T06:17:46.814Z,8.60
2019-03-05T06:20:50.520Z,8.40
2019-03-05T06:23:21.295Z,8.30
2019-03-05T06:25:53.932Z,8.50
2019-03-05T06:28:49.537Z,8.30
2019-03-05T06:31:18.284Z,7.80
2019-03-05T06:33:47.304Z,7.60
2019-03-05T06:36:23.381Z,7.80
2019-03-05T06:38:53.844Z,8.00
2019-03-05T06:41:23.695Z,7.80
2019-03-05T06:44:36.776Z,7.60
2019-03-05T06:47:05.617Z,7.50
2019-03-05T06:52:34.061Z,7.20
2019-03-05T06:55:35.892Z,5.00
2019-03-05T06:58:05.184Z,8.00
2019-03-05T07:00:36.156Z,7.00
2019-03-05T07:03:13.038Z,7.70
2019-03-05T07:06:17.725Z,7.50
2019-03-05T07:09:24.074Z,7.30
2019-03-05T07:11:58.590Z,7.70
2019-03-05T07:18:12.622Z,8.20
2019-03-05T07:21:15.858Z,8.30
2019-03-05T07:24:06.008Z,8.50
2019-03-05T07:26:41.757Z,8.60
2019-03-05T07:29:14.271Z,8.60
2019-03-05T07:31:46.265Z,8.60
2019-03-05T07:34:27.746Z,8.70
2019-03-05T07:37:01.166Z,8.70
2019-03-05T07:39:35.600Z,8.90
2019-03-05T07:42:04.488Z,8.90
2019-03-05T07:44:33.312Z,8.90
2019-03-05T07:47:02.485Z,8.40
2019-03-05T07:49:42.915Z,8.20
2019-03-05T07:52:02.277Z,8.50
2019-03-05T07:54:31.033Z,8.70
2019-03-05T07:57:00.486Z,8.50
2019-03-05T07:59:29.557Z,8.60
2019-03-05T08:02:00.529Z,8.60
2019-03-05T08:04:31.398Z,8.40
2019-03-05T08:07:07.379Z,8.00
2019-03-05T08:09:37.974Z,8.10
2019-03-05T08:12:30.892Z,8.40
2019-03-05T08:15:23.708Z,8.70
2019-03-05T08:17:52.707Z,9.10
2019-03-05T08:20:35.217Z,9.40
2019-03-05T08:23:04.904Z,9.90
2019-03-05T08:25:34.256Z,9.60
2019-03-05T08:28:06.204Z,9.60
2019-03-05T08:30:35.496Z,9.70
2019-03-05T08:33:04.419Z,9.80
2019-03-05T08:35:33.483Z,9.90
2019-03-05T08:38:05.946Z,9.80
2019-03-05T08:40:34.760Z,9.40
2019-03-05T08:43:04.981Z,12.40
2019-03-05T08:45:34.472Z,9.50
2019-03-05T08:48:03.772Z,9.50
2019-03-05T08:50:33.348Z,9.50
2019-03-05T08:53:02.085Z,9.20
2019-03-05T08:55:33.500Z,9.00
2019-03-05T08:58:09.535Z,9.00
2019-03-05T09:00:38.381Z,9.20
2019-03-05T09:03:07.432Z,9.00
2019-03-05T09:05:40.277Z,9.30
2019-03-05T09:08:09.495Z,9.50
2019-03-05T09:10:38.791Z,10.00
2019-03-05T09:13:11.607Z,10.30
2019-03-05T09:15:44.621Z,10.40
2019-03-05T09:18:20.685Z,10.30
2019-03-05T09:20:51.686Z,10.50
2019-03-05T09:23:20.689Z,10.10
2019-03-05T09:25:51.194Z,10.00
2019-03-05T09:28:20.112Z,10.20
2019-03-05T09:30:49.159Z,10.30
2019-03-05T09:33:19.659Z,10.40
2019-03-05T09:35:48.778Z,10.40
2019-03-05T09:38:17.627Z,9.60
2019-03-05T09:40:46.504Z,9.80
2019-03-05T09:43:16.336Z,10.10
2019-03-05T09:45:45.892Z,10.10
2019-03-05T09:48:16.357Z,10.10
2019-03-05T09:50:48.032Z,10.30
2019-03-05T09:56:08.255Z,10.90
2019-03-05T09:58:44.369Z,10.70
2019-03-05T10:04:15.142Z,10.70
2019-03-05T10:06:45.300Z,13.30
2019-03-05T10:09:15.390Z,10.10
2019-03-05T10:11:56.699Z,9.70
2019-03-05T10:17:46.305Z,10.20
2019-03-05T10:20:35.357Z,10.50
2019-03-05T10:23:15.009Z,10.50
2019-03-05T10:26:05.721Z,10.90
2019-03-05T10:29:01.394Z,11.10
2019-03-05T10:31:51.220Z,11.40
2019-03-05T10:34:24.118Z,11.10
2019-03-05T10:37:12.121Z,11.10
2019-03-05T10:39:48.399Z,11.20
2019-03-05T10:45:30.996Z,11.00
2019-03-05T10:48:08.444Z,10.90
2019-03-05T10:50:44.305Z,13.30
2019-03-05T10:56:25.042Z,11.10
2019-03-05T11:02:05.348Z,9.80
2019-03-05T11:04:45.658Z,9.60
2019-03-05T11:07:20.831Z,10.10
2019-03-05T11:09:56.517Z,10.30
2019-03-05T11:12:35.344Z,10.40
2019-03-05T11:15:12.387Z,9.70
2019-03-05T11:17:45.500Z,10.60
2019-03-05T11:20:25.220Z,10.80
2019-03-05T11:22:59.334Z,10.90
2019-03-05T11:25:34.370Z,11.30
2019-03-05T11:28:06.022Z,11.20
2019-03-05T11:30:50.659Z,10.90
2019-03-05T11:33:25.336Z,11.40
2019-03-05T11:36:03.044Z,11.30
2019-03-05T11:38:32.946Z,11.30
2019-03-05T11:41:19.465Z,11.10
2019-03-05T11:43:48.948Z,10.90
2019-03-05T11:46:18.576Z,11.10
2019-03-05T11:48:47.810Z,11.40
2019-03-05T11:51:16.633Z,11.10
2019-03-05T11:53:56.708Z,11.00
2019-03-05T11:56:31.108Z,11.10
2019-03-05T11:59:03.538Z,10.80
2019-03-05T12:01:35.865Z,11.30
2019-03-05T12:04:11.912Z,11.50
2019-03-05T12:06:40.739Z,11.60
2019-03-05T12:09:12.927Z,11.70
2019-03-05T12:11:41.892Z,12.00
2019-03-05T12:14:11.120Z,12.00
2019-03-05T12:16:41.807Z,11.50
2019-03-05T12:19:14.077Z,11.50
2019-03-05T12:21:43.643Z,11.40
2019-03-05T12:24:12.763Z,11.50
2019-03-05T12:26:42.932Z,11.70
2019-03-05T12:29:13.231Z,11.80
2019-03-05T12:31:45.588Z,11.90
2019-03-05T12:34:18.068Z,12.10
2019-03-05T12:36:46.987Z,11.90
2019-03-05T12:39:19.701Z,11.70
2019-03-05T12:41:50.314Z,11.30
2019-03-05T12:44:20.746Z,11.10
2019-03-05T12:46:49.635Z,11.00
2019-03-05T12:49:18.480Z,12.10
2019-03-05T12:51:47.710Z,10.60
2019-03-05T12:54:16.689Z,10.80
2019-03-05T12:56:45.635Z,11.10
2019-03-05T12:59:15.779Z,11.60
2019-03-05T13:01:46.923Z,11.60
2019-03-05T13:04:16.888Z,11.60
2019-03-05T13:06:47.060Z,11.60
2019-03-05T13:09:20.231Z,11.60
2019-03-05T13:11:50.978Z,12.00
2019-03-05T13:14:44.981Z,12.00
2019-03-05T13:17:21.909Z,12.20
2019-03-05T13:23:11.325Z,12.60
2019-03-05T13:32:58.873Z,11.30
2019-03-05T13:35:33.980Z,11.20
2019-03-05T13:38:46.506Z,11.30
2019-03-05T13:41:24.967Z,10.80
2019-03-05T13:47:43.027Z,11.20
2019-03-05T13:50:55.084Z,14.40
2019-03-05T13:53:43.919Z,9.00
2019-03-05T13:56:41.921Z,11.40
2019-03-05T13:59:47.994Z,11.50
2019-03-05T14:05:33.752Z,11.60
2019-03-05T14:11:27.096Z,11.20
2019-03-05T14:13:59.647Z,10.90
2019-03-05T14:16:32.087Z,11.30
2019-03-05T14:29:39.471Z,13.30
2019-03-05T14:32:23.289Z,12.80
2019-03-05T14:34:59.439Z,12.50
2019-03-05T14:37:35.627Z,12.60
2019-03-05T14:40:23.664Z,12.50
2019-03-05T14:43:27.221Z,11.80
2019-03-05T14:45:57.910Z,11.50
2019-03-05T14:48:28.616Z,11.20
2019-03-05T14:51:49.159Z,11.30
2019-03-05T14:54:24.816Z,11.80
2019-03-05T14:57:16.224Z,11.70
2019-03-05T14:59:47.386Z,11.80
2019-03-05T15:02:18.265Z,12.20
2019-03-05T15:05:33.886Z,12.70
2019-03-05T15:08:03.736Z,12.40
2019-03-05T15:10:35.588Z,12.60
2019-03-05T15:13:15.395Z,12.60
2019-03-05T15:15:34.943Z,12.60
2019-03-05T15:18:30.660Z,12.70
2019-03-05T15:21:02.348Z,12.70
2019-03-05T15:23:31.284Z,12.40
2019-03-05T15:26:39.299Z,12.30
2019-03-05T15:29:08.212Z,10.80
2019-03-05T15:31:38.534Z,12.10
2019-03-05T15:34:31.630Z,11.90
2019-03-05T15:37:10.271Z,12.20
2019-03-05T15:39:47.184Z,12.60
2019-03-05T15:42:16.252Z,12.50
2019-03-05T15:45:02.049Z,10.30
2019-03-05T15:47:18.981Z,11.90
2019-03-05T15:52:43.512Z,12.00
2019-03-05T15:55:18.076Z,11.90
2019-03-05T15:57:53.327Z,11.90
2019-03-05T16:00:31.604Z,11.90
2019-03-05T16:03:01.634Z,12.20
2019-03-05T16:05:42.927Z,12.30
2019-03-05T16:08:20.946Z,12.50
2019-03-05T16:11:24.965Z,12.30
2019-03-05T16:13:59.573Z,11.80
2019-03-05T16:16:28.570Z,12.00
2019-03-05T16:19:35.246Z,11.80
2019-03-05T16:22:04.121Z,12.10
2019-03-05T16:25:09.908Z,12.50
2019-03-05T16:27:43.969Z,12.50
2019-03-05T16:33:14.415Z,12.40
2019-03-05T16:35:54.473Z,12.60
2019-03-05T16:38:28.749Z,12.70
2019-03-05T16:44:09.668Z,12.60
2019-03-05T16:49:44.114Z,12.40
2019-03-05T16:55:28.019Z,12.30
2019-03-05T16:58:01.354Z,11.90
2019-03-05T17:04:38.804Z,12.10
2019-03-05T17:07:22.619Z,12.30
2019-03-05T17:12:50.978Z,12.40
2019-03-05T17:18:20.716Z,12.30
2019-03-05T17:23:49.964Z,11.90
2019-03-05T17:26:27.598Z,11.90
2019-03-05T17:29:24.960Z,11.80
2019-03-05T17:31:59.679Z,12.30
2019-03-05T17:37:31.087Z,10.70
2019-03-05T17:42:56.268Z,10.80
2019-03-05T17:45:29.601Z,10.50
2019-03-05T17:48:05.099Z,10.40
2019-03-05T17:50:37.566Z,10.70
2019-03-05T18:00:30.143Z,10.80
2019-03-05T18:05:55.541Z,10.20
2019-03-05T18:11:19.534Z,10.40
2019-03-05T18:14:25.639Z,10.40
2019-03-05T18:16:57.238Z,10.70
2019-03-05T18:19:33.148Z,10.80
2019-03-05T18:22:27.523Z,10.80
2019-03-05T18:24:57.388Z,10.50
2019-03-05T18:30:38.417Z,10.00
2019-03-05T18:36:05.560Z,10.20
2019-03-05T18:45:18.919Z,9.70
2019-03-05T18:47:56.776Z,9.70
2019-03-05T18:50:26.296Z,9.90
2019-03-05T18:53:30.904Z,10.00
2019-03-05T18:56:06.128Z,11.00
2019-03-05T18:58:37.080Z,10.00
2019-03-05T19:01:11.330Z,10.20
2019-03-05T19:06:49.106Z,10.20
2019-03-05T19:09:23.372Z,10.10
2019-03-05T19:11:58.571Z,10.00
2019-03-05T19:14:28.987Z,10.10
2019-03-05T19:17:45.170Z,9.90
2019-03-05T19:20:18.463Z,9.70
2019-03-05T19:22:49.726Z,9.80
2019-03-05T19:25:54.777Z,9.80
2019-03-05T19:28:25.388Z,9.60
2019-03-05T19:31:21.805Z,9.40
2019-03-05T19:33:57.126Z,9.50
2019-03-05T19:36:27.414Z,9.50
2019-03-05T19:39:03.682Z,9.50
2019-03-05T19:41:43.274Z,9.60
2019-03-05T19:44:59.991Z,9.50
2019-03-05T19:47:39.294Z,9.30
2019-03-05T19:50:30.989Z,9.40
2019-03-05T19:53:03.612Z,9.50
2019-03-05T19:55:32.759Z,9.60
2019-03-05T19:58:58.278Z,9.60
2019-03-05T20:01:31.896Z,9.60
2019-03-05T20:04:11.385Z,9.80
2019-03-05T20:11:00.167Z,9.90
2019-03-05T20:13:48.806Z,9.80
2019-03-05T20:16:23.944Z,9.90
2019-03-05T20:19:00.743Z,9.90
2019-03-05T20:21:32.867Z,10.00
2019-03-05T20:24:15.219Z,9.90
2019-03-05T20:26:55.448Z,9.80
2019-03-05T20:32:27.524Z,9.90
2019-03-05T20:34:59.356Z,9.90
2019-03-05T20:38:24.716Z,10.00
2019-03-05T20:40:17.838Z,9.90
2019-03-05T20:42:59.096Z,9.80
2019-03-05T20:45:37.562Z,9.90
2019-03-05T20:50:57.575Z,10.10
2019-03-05T20:53:33.357Z,10.10
2019-03-05T20:56:08.744Z,10.00
2019-03-05T20:58:39.163Z,10.00
2019-03-05T21:01:15.214Z,10.20
2019-03-05T21:03:45.192Z,12.70
2019-03-05T21:06:19.931Z,10.00
2019-03-05T21:08:58.856Z,9.50
2019-03-05T21:12:36.833Z,9.10
2019-03-05T21:14:06.861Z,8.90
2019-03-05T21:16:46.234Z,8.30
2019-03-05T21:19:51.915Z,9.40
2019-03-05T21:22:22.510Z,9.20
2019-03-05T21:24:53.311Z,10.00
2019-03-05T21:27:31.983Z,12.10
2019-03-05T21:30:22.525Z,10.40
2019-03-05T21:33:06.105Z,10.40
2019-03-05T21:35:38.398Z,10.20
2019-03-05T21:45:15.527Z,9.90
2019-03-05T21:47:47.908Z,9.60
2019-03-05T21:50:20.024Z,9.50
2019-03-05T21:52:55.114Z,9.50
2019-03-05T21:55:31.620Z,9.20
2019-03-05T21:58:05.138Z,9.10
2019-03-05T22:18:13.576Z,8.40
2019-03-05T22:20:43.203Z,8.60
2019-03-05T22:26:09.524Z,9.00
2019-03-05T22:28:43.668Z,9.30
2019-03-05T22:31:14.368Z,9.60
2019-03-05T22:33:49.105Z,9.80
2019-03-05T22:36:18.547Z,9.90
2019-03-05T22:38:50.452Z,10.20
2019-03-05T22:44:53.819Z,10.10
2019-03-05T22:50:24.260Z,12.50
2019-03-05T22:52:55.032Z,10.40
2019-03-05T22:56:07.184Z,10.50
2019-03-05T22:58:45.137Z,10.40
2019-03-05T23:01:18.403Z,10.60
2019-03-05T23:04:01.233Z,10.70
2019-03-05T23:06:32.580Z,10.60
2019-03-05T23:09:52.808Z,10.50
2019-03-05T23:12:25.135Z,10.10
2019-03-05T23:14:59.334Z,9.60
2019-03-05T23:18:00.808Z,9.30
2019-03-05T23:20:36.570Z,8.90
2019-03-05T23:23:11.558Z,9.00
2019-03-05T23:26:00.420Z,9.20
2019-03-05T23:28:34.220Z,9.10
2019-03-05T23:31:10.968Z,9.10
2019-03-05T23:33:46.453Z,9.00
2019-03-05T23:36:19.938Z,9.00
2019-03-05T23:38:55.302Z,9.10
2019-03-05T23:41:22.939Z,9.20
2019-03-05T23:43:56.343Z,9.10
2019-03-05T23:46:55.942Z,9.30
2019-03-05T23:49:30.922Z,9.50
2019-03-05T23:54:54.043Z,9.70
2019-03-05T23:58:31.325Z,9.80
